createdAt,value
2023-06-17T00:00:55.492Z,247.89
2023-06-17T00:01:55.447Z,247.08
2023-06-17T00:02:55.492Z,246.85
2023-06-17T00:03:55.373Z,247.27
2023-06-17T00:04:55.321Z,248.46
2023-06-17T00:05:55.286Z,247.50
2023-06-17T00:06:55.269Z,247.23
2023-06-17T00:07:55.220Z,247.14
2023-06-17T00:08:55.245Z,247.04
2023-06-17T00:09:55.142Z,247.56
2023-06-17T00:10:55.124Z,246.36
2023-06-17T00:11:55.086Z,247.29
2023-06-17T00:12:55.048Z,247.27
2023-06-17T00:13:55.005Z,247.08
2023-06-17T00:14:54.963Z,247.12
2023-06-17T00:15:54.919Z,248.74
2023-06-17T00:16:54.885Z,247.41
2023-06-17T00:17:54.888Z,247.80
2023-06-17T00:18:54.800Z,247.79
2023-06-17T00:19:54.763Z,246.39
2023-06-17T00:20:54.740Z,246.49
2023-06-17T00:21:54.685Z,246.60
2023-06-17T00:22:54.671Z,246.71
2023-06-17T00:23:54.615Z,247.75
2023-06-17T00:24:54.562Z,248.09
2023-06-17T00:25:54.534Z,247.55
2023-06-17T00:26:54.506Z,246.67
2023-06-17T00:27:54.450Z,246.62
2023-06-17T00:28:54.423Z,248.36
2023-06-17T00:29:54.355Z,247.70
2023-06-17T00:30:54.343Z,246.61
2023-06-17T00:31:54.285Z,246.89
2023-06-17T00:32:54.327Z,246.83
2023-06-17T00:33:54.202Z,247.46
2023-06-17T00:34:54.153Z,247.24
2023-06-17T00:35:55.982Z,246.73
2023-06-17T00:36:54.097Z,246.75
2023-06-17T00:37:54.061Z,246.30
2023-06-17T00:38:54.013Z,247.23
2023-06-17T00:39:53.973Z,246.86
2023-06-17T00:40:53.942Z,246.62
2023-06-17T00:41:53.898Z,246.28
2023-06-17T00:42:53.850Z,246.93
2023-06-17T00:43:53.808Z,247.72
2023-06-17T00:44:53.788Z,247.03
2023-06-17T00:45:53.765Z,246.77
2023-06-17T00:46:53.818Z,247.42
2023-06-17T00:47:53.749Z,245.51
2023-06-17T00:48:53.702Z,246.82
2023-06-17T00:49:53.691Z,246.74
2023-06-17T00:50:53.691Z,246.92
2023-06-17T00:52:10.048Z,246.95
2023-06-17T00:52:54.728Z,246.71
2023-06-17T00:53:53.602Z,246.71
2023-06-17T00:54:53.556Z,246.43
2023-06-17T00:55:53.519Z,247.32
2023-06-17T00:56:53.485Z,245.61
2023-06-17T00:57:53.445Z,246.20
2023-06-17T00:58:53.417Z,246.45
2023-06-17T00:59:53.379Z,246.36
2023-06-17T01:00:53.356Z,246.42
2023-06-17T01:01:53.311Z,246.23
2023-06-17T01:02:53.320Z,247.93
2023-06-17T01:03:53.327Z,247.51
2023-06-17T01:04:53.190Z,247.98
2023-06-17T01:05:53.147Z,247.57
2023-06-17T01:06:53.127Z,247.97
2023-06-17T01:07:53.068Z,247.43
2023-06-17T01:08:53.041Z,247.30
2023-06-17T01:09:53.005Z,247.46
2023-06-17T01:10:52.976Z,246.59
2023-06-17T01:11:52.933Z,246.80
2023-06-17T01:12:52.887Z,246.55
2023-06-17T01:13:52.846Z,246.60
2023-06-17T01:14:52.803Z,246.81
2023-06-17T01:15:52.771Z,246.86
2023-06-17T01:16:52.740Z,246.84
2023-06-17T01:17:52.752Z,246.00
2023-06-17T01:18:52.676Z,247.19
2023-06-17T01:19:52.642Z,247.31
2023-06-17T01:20:52.610Z,247.31
2023-06-17T01:21:52.575Z,245.99
2023-06-17T01:22:52.548Z,246.12
2023-06-17T01:23:52.576Z,246.87
2023-06-17T01:24:52.504Z,247.34
2023-06-17T01:25:52.443Z,247.61
2023-06-17T01:26:52.415Z,247.34
2023-06-17T01:27:52.389Z,246.72
2023-06-17T01:28:52.368Z,246.65
2023-06-17T01:29:52.317Z,246.97
2023-06-17T01:30:52.286Z,246.28
2023-06-17T01:31:52.262Z,246.98
2023-06-17T01:32:52.307Z,247.98
2023-06-17T01:33:52.200Z,247.18
2023-06-17T01:34:52.197Z,245.78
2023-06-17T01:35:52.146Z,246.59
2023-06-17T01:36:52.097Z,247.04
2023-06-17T01:37:52.092Z,247.49
2023-06-17T01:38:52.069Z,246.83
2023-06-17T01:39:52.070Z,244.91
2023-06-17T01:40:52.040Z,247.69
2023-06-17T01:41:52.041Z,246.22
2023-06-17T01:42:52.056Z,246.41
2023-06-17T01:43:52.029Z,247.41
2023-06-17T01:44:52.015Z,247.48
2023-06-17T01:45:52.034Z,246.24
2023-06-17T01:46:52.015Z,246.99
2023-06-17T01:47:52.033Z,245.85
2023-06-17T01:48:51.973Z,247.36
2023-06-17T01:49:51.969Z,244.84
2023-06-17T01:50:51.967Z,246.04
2023-06-17T01:51:51.949Z,246.21
2023-06-17T01:52:51.967Z,246.84
2023-06-17T01:53:51.983Z,246.81
2023-06-17T01:54:51.928Z,246.91
2023-06-17T01:55:51.913Z,246.15
2023-06-17T01:56:51.906Z,246.26
2023-06-17T01:57:51.931Z,247.44
2023-06-17T01:58:51.884Z,247.21
2023-06-17T01:59:51.888Z,246.29
2023-06-17T02:00:51.871Z,246.51
2023-06-17T02:01:51.866Z,246.27
2023-06-17T02:02:51.941Z,245.46
2023-06-17T02:03:51.886Z,247.05
2023-06-17T02:04:51.856Z,245.91
2023-06-17T02:05:51.834Z,245.18
2023-06-17T02:06:51.834Z,246.59
2023-06-17T02:07:51.838Z,246.65
2023-06-17T02:08:51.827Z,245.03
2023-06-17T02:09:51.836Z,247.16
2023-06-17T02:10:51.824Z,246.93
2023-06-17T02:11:51.797Z,246.65
2023-06-17T02:12:51.812Z,245.05
2023-06-17T02:13:51.778Z,245.49
2023-06-17T02:14:51.785Z,246.80
2023-06-17T02:15:51.776Z,245.75
2023-06-17T02:16:51.768Z,245.41
2023-06-17T02:17:51.808Z,247.75
2023-06-17T02:18:51.740Z,246.94
2023-06-17T02:19:51.745Z,246.62
2023-06-17T02:20:51.730Z,246.02
2023-06-17T02:21:51.738Z,245.87
2023-06-17T02:22:51.736Z,246.56
2023-06-17T02:23:51.750Z,246.38
2023-06-17T02:24:51.719Z,245.54
2023-06-17T02:25:51.701Z,246.27
2023-06-17T02:26:51.698Z,246.64
2023-06-17T02:27:51.697Z,246.66
2023-06-17T02:28:51.726Z,246.68
2023-06-17T02:29:51.681Z,246.37
2023-06-17T02:30:51.768Z,245.80
2023-06-17T02:31:51.686Z,245.60
2023-06-17T02:32:51.757Z,245.93
2023-06-17T02:33:51.711Z,246.73
2023-06-17T02:34:51.704Z,245.94
2023-06-17T02:35:51.681Z,245.47
2023-06-17T02:36:51.687Z,245.99
2023-06-17T02:37:51.700Z,244.53
2023-06-17T02:38:51.693Z,245.98
2023-06-17T02:39:51.678Z,246.38
2023-06-17T02:40:51.713Z,246.43
2023-06-17T02:41:51.678Z,246.55
2023-06-17T02:42:51.691Z,246.75
2023-06-17T02:43:51.674Z,245.56
2023-06-17T02:44:51.683Z,245.88
2023-06-17T02:45:51.690Z,246.54
2023-06-17T02:46:51.769Z,246.53
2023-06-17T02:47:51.754Z,244.97
2023-06-17T02:48:51.714Z,245.45
2023-06-17T02:49:51.707Z,244.99
2023-06-17T02:50:51.697Z,245.78
2023-06-17T02:51:51.693Z,247.21
2023-06-17T02:52:51.715Z,246.11
2023-06-17T02:53:51.683Z,244.79
2023-06-17T02:54:51.701Z,241.96
2023-06-17T02:55:51.713Z,237.41
2023-06-17T02:56:51.720Z,232.40
2023-06-17T02:57:51.720Z,226.21
2023-06-17T02:58:51.718Z,220.49
2023-06-17T02:59:51.721Z,215.92
2023-06-17T03:00:51.840Z,210.54
2023-06-17T03:01:51.744Z,205.50
2023-06-17T03:02:52.048Z,199.90
2023-06-17T03:03:51.786Z,193.09
2023-06-17T03:04:51.773Z,189.03
2023-06-17T03:05:51.790Z,183.62
2023-06-17T03:06:52.264Z,179.25
2023-06-17T03:07:51.817Z,174.03
2023-06-17T03:08:51.840Z,171.22
2023-06-17T03:09:51.864Z,167.09
2023-06-17T03:10:51.875Z,164.30
2023-06-17T03:11:51.898Z,159.50
2023-06-17T03:12:51.923Z,155.54
2023-06-17T03:13:51.942Z,155.39
2023-06-17T03:14:51.967Z,148.87
2023-06-17T03:15:52.027Z,146.47
2023-06-17T03:16:52.056Z,143.71
2023-06-17T03:17:52.127Z,140.50
2023-06-17T03:18:52.129Z,139.05
2023-06-17T03:19:52.162Z,134.74
2023-06-17T03:20:52.178Z,132.70
2023-06-17T03:21:52.216Z,132.67
2023-06-17T03:22:52.277Z,129.47
2023-06-17T03:23:52.324Z,126.43
2023-06-17T03:24:52.357Z,125.41
2023-06-17T03:25:52.382Z,123.05
2023-06-17T03:26:52.428Z,120.62
2023-06-17T03:27:52.460Z,119.06
2023-06-17T03:28:52.486Z,116.76
2023-06-17T03:29:52.512Z,116.06
2023-06-17T03:30:52.574Z,114.40
2023-06-17T03:31:52.636Z,114.55
2023-06-17T03:32:52.653Z,112.22
2023-06-17T03:33:52.646Z,112.32
2023-06-17T03:34:52.653Z,110.78
2023-06-17T03:35:52.660Z,110.30
2023-06-17T03:36:52.621Z,110.30
2023-06-17T03:37:52.614Z,108.89
2023-06-17T03:38:52.581Z,107.29
2023-06-17T03:39:52.571Z,107.66
2023-06-17T03:40:52.538Z,105.22
2023-06-17T03:41:52.514Z,103.60
2023-06-17T03:42:52.538Z,105.36
2023-06-17T03:43:52.488Z,103.27
2023-06-17T03:44:52.467Z,105.21
2023-06-17T03:45:52.433Z,103.24
2023-06-17T03:46:52.417Z,104.68
2023-06-17T03:47:52.464Z,102.45
2023-06-17T03:48:52.395Z,99.41
2023-06-17T03:49:52.395Z,101.51
2023-06-17T03:50:52.409Z,101.37
2023-06-17T03:51:52.419Z,99.70
2023-06-17T03:52:52.453Z,101.04
2023-06-17T03:53:52.435Z,100.40
2023-06-17T03:54:52.426Z,97.43
2023-06-17T03:55:52.484Z,98.33
2023-06-17T03:56:52.414Z,96.80
2023-06-17T03:57:52.402Z,94.07
2023-06-17T03:58:52.389Z,91.17
2023-06-17T03:59:52.361Z,91.48
2023-06-17T04:00:52.345Z,91.31
2023-06-17T04:01:52.330Z,93.30
2023-06-17T04:02:52.424Z,93.15
2023-06-17T04:03:52.504Z,93.15
2023-06-17T04:04:52.304Z,92.16
2023-06-17T04:05:52.298Z,90.79
2023-06-17T04:06:52.266Z,95.33
2023-06-17T04:07:52.264Z,95.44
2023-06-17T04:08:52.258Z,95.26
2023-06-17T04:10:05.904Z,91.38
2023-06-17T04:10:53.230Z,91.53
2023-06-17T04:11:52.193Z,91.53
2023-06-17T04:12:52.186Z,91.49
2023-06-17T04:13:52.176Z,93.68
2023-06-17T04:14:52.146Z,94.35
2023-06-17T04:15:52.118Z,91.65
2023-06-17T04:16:52.118Z,95.90
2023-06-17T04:17:52.151Z,92.69
2023-06-17T04:18:52.088Z,96.49
2023-06-17T04:19:52.078Z,93.84
2023-06-17T04:20:52.053Z,93.17
2023-06-17T04:21:52.026Z,96.00
2023-06-17T04:22:52.006Z,93.29
2023-06-17T04:23:52.016Z,90.87
2023-06-17T04:24:51.988Z,92.18
2023-06-17T04:25:51.962Z,90.31
2023-06-17T04:26:51.948Z,90.69
2023-06-17T04:27:51.925Z,92.05
2023-06-17T04:28:51.901Z,90.45
2023-06-17T04:29:51.893Z,90.99
2023-06-17T04:30:51.844Z,93.33
2023-06-17T04:31:51.810Z,92.22
2023-06-17T04:32:51.823Z,88.84
2023-06-17T04:33:51.795Z,90.24
2023-06-17T04:34:51.761Z,89.48
2023-06-17T04:35:51.738Z,88.51
2023-06-17T04:36:51.712Z,85.06
2023-06-17T04:37:51.697Z,88.93
2023-06-17T04:38:51.674Z,85.03
2023-06-17T04:39:51.650Z,87.42
2023-06-17T04:40:51.636Z,86.36
2023-06-17T04:41:51.613Z,87.33
2023-06-17T04:42:51.609Z,83.01
2023-06-17T04:43:51.590Z,86.03
2023-06-17T04:44:51.612Z,85.42
2023-06-17T04:45:51.596Z,84.56
2023-06-17T04:46:51.666Z,85.14
2023-06-17T04:47:51.651Z,83.06
2023-06-17T04:48:51.616Z,80.07
2023-06-17T04:49:51.606Z,82.45
2023-06-17T04:50:51.620Z,86.14
2023-06-17T04:51:51.625Z,82.55
2023-06-17T04:52:51.626Z,86.95
2023-06-17T04:53:51.642Z,87.37
2023-06-17T04:54:51.638Z,87.63
2023-06-17T04:55:51.644Z,88.48
2023-06-17T04:56:51.629Z,89.94
2023-06-17T04:57:51.647Z,90.58
2023-06-17T04:58:51.651Z,92.77
2023-06-17T04:59:51.645Z,93.47
2023-06-17T05:00:51.724Z,95.85
2023-06-17T05:01:51.637Z,95.78
2023-06-17T05:02:51.732Z,96.41
2023-06-17T05:03:51.705Z,95.24
2023-06-17T05:04:51.652Z,98.55
2023-06-17T05:05:51.653Z,95.36
2023-06-17T05:06:51.651Z,96.90
2023-06-17T05:07:51.669Z,95.27
2023-06-17T05:08:51.667Z,94.75
2023-06-17T05:09:51.681Z,96.06
2023-06-17T05:10:51.670Z,95.19
2023-06-17T05:11:51.676Z,99.43
2023-06-17T05:12:51.701Z,97.51
2023-06-17T05:13:51.688Z,95.58
2023-06-17T05:14:51.678Z,93.33
2023-06-17T05:15:51.702Z,96.23
2023-06-17T05:16:51.742Z,95.28
2023-06-17T05:17:51.762Z,95.46
2023-06-17T05:18:51.735Z,96.04
2023-06-17T05:19:51.745Z,99.41
2023-06-17T05:20:51.740Z,98.03
2023-06-17T05:21:51.765Z,98.76
2023-06-17T05:22:51.762Z,96.96
2023-06-17T05:23:51.809Z,100.64
2023-06-17T05:24:51.794Z,98.38
2023-06-17T05:25:51.832Z,97.46
2023-06-17T05:26:51.828Z,97.70
2023-06-17T05:27:51.856Z,98.83
2023-06-17T05:28:51.850Z,99.14
2023-06-17T05:29:51.864Z,98.84
2023-06-17T05:30:51.918Z,93.75
2023-06-17T05:31:51.877Z,93.47
2023-06-17T05:32:51.969Z,96.07
2023-06-17T05:33:51.908Z,92.96
2023-06-17T05:34:51.898Z,96.16
2023-06-17T05:35:51.914Z,94.10
2023-06-17T05:36:51.921Z,91.82
2023-06-17T05:37:51.944Z,94.17
2023-06-17T05:38:51.971Z,95.08
2023-06-17T05:39:51.973Z,96.54
2023-06-17T05:40:51.991Z,94.98
2023-06-17T05:41:52.010Z,91.90
2023-06-17T05:42:52.010Z,98.95
2023-06-17T05:43:52.042Z,99.56
2023-06-17T05:44:52.051Z,98.08
2023-06-17T05:45:52.069Z,101.39
2023-06-17T05:46:52.067Z,101.87
2023-06-17T05:47:52.099Z,102.16
2023-06-17T05:48:52.087Z,105.64
2023-06-17T05:49:52.093Z,102.98
2023-06-17T05:50:52.107Z,102.10
2023-06-17T05:51:52.130Z,102.97
2023-06-17T05:52:52.128Z,102.87
2023-06-17T05:53:52.164Z,105.51
2023-06-17T05:54:52.154Z,107.47
2023-06-17T05:55:52.181Z,107.83
2023-06-17T05:56:52.192Z,105.20
2023-06-17T05:57:52.203Z,106.25
2023-06-17T05:58:52.197Z,108.08
2023-06-17T05:59:52.219Z,104.13
2023-06-17T06:00:52.233Z,100.95
2023-06-17T06:01:52.329Z,104.36
2023-06-17T06:02:52.280Z,102.74
2023-06-17T06:03:52.314Z,102.68
2023-06-17T06:04:52.281Z,100.66
2023-06-17T06:05:52.301Z,105.81
2023-06-17T06:06:52.293Z,104.63
2023-06-17T06:07:52.317Z,102.65
2023-06-17T06:08:52.310Z,104.54
2023-06-17T06:09:52.348Z,103.62
2023-06-17T06:10:52.320Z,103.50
2023-06-17T06:11:52.338Z,102.58
2023-06-17T06:12:52.341Z,104.26
2023-06-17T06:13:52.348Z,102.67
2023-06-17T06:14:52.346Z,100.54
2023-06-17T06:15:52.410Z,100.18
2023-06-17T06:16:52.359Z,101.18
2023-06-17T06:17:52.374Z,99.85
2023-06-17T06:18:52.342Z,100.50
2023-06-17T06:19:52.436Z,97.76
2023-06-17T06:20:52.320Z,92.89
2023-06-17T06:21:52.325Z,97.46
2023-06-17T06:22:52.310Z,90.36
2023-06-17T06:23:52.341Z,90.22
2023-06-17T06:24:52.276Z,85.65
2023-06-17T06:25:52.249Z,85.96
2023-06-17T06:26:52.256Z,84.72
2023-06-17T06:27:52.222Z,83.60
2023-06-17T06:28:52.205Z,82.90
2023-06-17T06:29:52.189Z,78.23
2023-06-17T06:30:52.181Z,78.43
2023-06-17T06:31:52.173Z,74.17
2023-06-17T06:32:52.157Z,72.71
2023-06-17T06:33:52.129Z,66.93
2023-06-17T06:34:52.116Z,63.97
2023-06-17T06:35:52.098Z,61.27
2023-06-17T06:36:52.105Z,56.15
2023-06-17T06:37:52.067Z,52.05
2023-06-17T06:38:52.053Z,48.53
2023-06-17T06:39:52.032Z,46.27
2023-06-17T06:40:52.019Z,42.66
2023-06-17T06:41:52.001Z,41.24
2023-06-17T06:42:51.962Z,35.70
2023-06-17T06:43:51.960Z,29.11
2023-06-17T06:44:51.926Z,28.31
2023-06-17T06:45:51.961Z,24.68
2023-06-17T06:46:51.895Z,26.15
2023-06-17T06:47:51.973Z,27.28
2023-06-17T06:48:51.852Z,27.23
2023-06-17T06:49:51.822Z,24.80
2023-06-17T06:50:51.795Z,28.04
2023-06-17T06:51:51.789Z,25.10
2023-06-17T06:52:51.752Z,26.49
2023-06-17T06:53:51.752Z,25.00
2023-06-17T06:54:51.707Z,23.72
2023-06-17T06:55:51.704Z,24.05
2023-06-17T06:56:51.662Z,26.73
2023-06-17T06:57:51.681Z,25.00
2023-06-17T06:58:51.629Z,27.41
2023-06-17T06:59:52.644Z,25.00
2023-06-17T07:00:51.606Z,25.00
2023-06-17T07:01:51.547Z,26.03
2023-06-17T07:02:51.617Z,25.00
2023-06-17T07:03:51.505Z,24.59
2023-06-17T07:04:51.535Z,25.00
2023-06-17T07:05:51.479Z,25.26
2023-06-17T07:06:51.448Z,26.37
2023-06-17T07:07:51.438Z,25.53
2023-06-17T07:08:51.474Z,25.00
2023-06-17T07:09:51.521Z,26.39
2023-06-17T07:10:51.555Z,26.71
2023-06-17T07:11:51.602Z,26.15
2023-06-17T07:12:51.588Z,25.00
2023-06-17T07:13:51.633Z,25.94
2023-06-17T07:14:51.594Z,25.90
2023-06-17T07:15:51.571Z,25.49
2023-06-17T07:16:51.628Z,26.69
2023-06-17T07:17:51.700Z,25.69
2023-06-17T07:18:51.629Z,25.66
2023-06-17T07:19:51.645Z,25.00
2023-06-17T07:20:51.654Z,25.27
2023-06-17T07:21:51.714Z,26.68
2023-06-17T07:22:51.722Z,25.71
2023-06-17T07:23:51.755Z,25.80
2023-06-17T07:24:51.777Z,26.35
2023-06-17T07:25:53.022Z,25.16
2023-06-17T07:26:51.775Z,25.92
2023-06-17T07:27:51.754Z,25.76
2023-06-17T07:28:51.749Z,25.00
2023-06-17T07:29:51.728Z,26.55
2023-06-17T07:30:51.737Z,25.84
2023-06-17T07:31:51.679Z,25.44
2023-06-17T07:32:51.694Z,25.01
2023-06-17T07:33:57.865Z,25.27
2023-06-17T07:34:51.639Z,23.44
2023-06-17T07:35:51.630Z,22.98
2023-06-17T07:36:51.586Z,21.54
2023-06-17T07:37:51.578Z,21.18
2023-06-17T07:38:51.549Z,20.28
2023-06-17T07:39:51.545Z,25.00
2023-06-17T07:40:51.526Z,25.13
2023-06-17T07:41:51.494Z,26.29
2023-06-17T07:42:51.471Z,25.69
2023-06-17T07:43:51.520Z,25.44
2023-06-17T07:44:51.557Z,25.47
2023-06-17T07:45:51.619Z,25.54
2023-06-17T07:46:51.692Z,25.00
2023-06-17T07:47:51.698Z,25.62
2023-06-17T07:48:51.698Z,26.04
2023-06-17T07:49:51.742Z,25.11
2023-06-17T07:50:51.741Z,25.75
2023-06-17T07:51:51.769Z,25.82
2023-06-17T07:52:51.788Z,26.15
2023-06-17T07:53:51.809Z,25.00
2023-06-17T07:54:51.824Z,25.13
2023-06-17T07:55:51.845Z,25.08
2023-06-17T07:56:51.868Z,25.21
2023-06-17T07:57:51.893Z,25.00
2023-06-17T07:58:51.919Z,25.17
2023-06-17T07:59:51.951Z,26.12
2023-06-17T08:00:51.990Z,25.66
2023-06-17T08:01:52.074Z,25.29
2023-06-17T08:02:52.090Z,24.63
2023-06-17T08:03:52.116Z,25.07
2023-06-17T08:04:52.041Z,25.47
2023-06-17T08:05:52.083Z,25.31
2023-06-17T08:06:52.086Z,25.20
2023-06-17T08:07:52.206Z,25.57
2023-06-17T08:08:52.124Z,25.20
2023-06-17T08:09:52.135Z,25.00
2023-06-17T08:10:52.164Z,25.59
2023-06-17T08:11:52.185Z,25.31
2023-06-17T08:12:52.200Z,26.18
2023-06-17T08:13:52.214Z,25.00
2023-06-17T08:14:52.204Z,24.89
2023-06-17T08:15:52.234Z,25.15
2023-06-17T08:16:52.293Z,25.60
2023-06-17T08:17:52.258Z,25.58
2023-06-17T08:18:52.213Z,25.11
2023-06-17T08:19:52.223Z,23.68
2023-06-17T08:20:52.168Z,22.13
2023-06-17T08:21:52.131Z,20.87
2023-06-17T08:22:52.105Z,20.51
2023-06-17T08:23:52.156Z,27.08
2023-06-17T08:24:52.062Z,25.15
2023-06-17T08:25:52.049Z,25.09
2023-06-17T08:26:52.011Z,24.89
2023-06-17T08:27:52.148Z,25.64
2023-06-17T08:28:51.970Z,25.31
2023-06-17T08:29:51.949Z,28.83
2023-06-17T08:30:51.915Z,26.93
2023-06-17T08:31:51.927Z,25.26
2023-06-17T08:32:51.883Z,26.75
2023-06-17T08:33:51.846Z,28.79
2023-06-17T08:34:51.817Z,26.31
2023-06-17T08:35:51.795Z,26.86
2023-06-17T08:36:51.803Z,28.93
2023-06-17T08:37:51.793Z,26.58
2023-06-17T08:38:51.821Z,30.64
2023-06-17T08:39:51.799Z,34.76
2023-06-17T08:40:51.804Z,33.19
2023-06-17T08:41:51.816Z,29.70
2023-06-17T08:42:51.790Z,31.20
2023-06-17T08:43:51.814Z,31.85
2023-06-17T08:44:51.840Z,32.83
2023-06-17T08:45:51.883Z,33.81
2023-06-17T08:46:51.831Z,34.53
2023-06-17T08:47:51.882Z,40.07
2023-06-17T08:48:51.819Z,40.02
2023-06-17T08:49:51.826Z,37.85
2023-06-17T08:50:51.830Z,35.06
2023-06-17T08:51:51.837Z,31.26
2023-06-17T08:52:53.716Z,28.64
2023-06-17T08:53:51.819Z,30.06
2023-06-17T08:54:51.779Z,32.02
2023-06-17T08:55:51.774Z,33.72
2023-06-17T08:56:51.747Z,37.91
2023-06-17T08:57:51.720Z,39.66
2023-06-17T08:58:51.720Z,42.95
2023-06-17T08:59:51.687Z,46.24
2023-06-17T09:00:51.720Z,49.52
2023-06-17T09:01:51.625Z,52.02
2023-06-17T09:02:51.603Z,55.04
2023-06-17T09:03:51.574Z,60.27
2023-06-17T09:04:51.577Z,64.35
2023-06-17T09:05:51.517Z,69.64
2023-06-17T09:06:51.481Z,72.77
2023-06-17T09:07:51.460Z,76.45
2023-06-17T09:08:51.444Z,79.35
2023-06-17T09:09:51.395Z,84.87
2023-06-17T09:10:51.357Z,87.63
2023-06-17T09:11:52.665Z,90.69
2023-06-17T09:12:51.297Z,93.25
2023-06-17T09:13:51.346Z,95.69
2023-06-17T09:14:51.244Z,98.46
2023-06-17T09:15:51.217Z,101.71
2023-06-17T09:16:51.215Z,104.82
2023-06-17T09:17:51.202Z,108.63
2023-06-17T09:18:51.137Z,110.13
2023-06-17T09:19:51.091Z,114.72
2023-06-17T09:20:51.052Z,117.29
2023-06-17T09:21:51.019Z,119.66
2023-06-17T09:22:51.029Z,123.53
2023-06-17T09:23:51.066Z,125.95
2023-06-17T09:24:51.053Z,127.16
2023-06-17T09:25:51.062Z,130.27
2023-06-17T09:26:51.109Z,133.20
2023-06-17T09:28:08.325Z,135.13
2023-06-17T09:28:52.068Z,135.22
2023-06-17T09:29:51.021Z,135.91
2023-06-17T09:30:51.006Z,137.90
2023-06-17T09:31:50.964Z,135.46
2023-06-17T09:32:51.082Z,137.04
2023-06-17T09:33:50.892Z,140.15
2023-06-17T09:34:50.856Z,145.17
2023-06-17T09:35:50.800Z,153.63
2023-06-17T09:36:50.774Z,156.95
2023-06-17T09:38:02.463Z,157.83
2023-06-17T09:38:51.721Z,157.92
2023-06-17T09:39:50.689Z,158.39
2023-06-17T09:40:50.677Z,159.66
2023-06-17T09:41:50.624Z,162.03
2023-06-17T09:42:50.610Z,166.82
2023-06-17T09:43:50.568Z,168.29
2023-06-17T09:44:50.547Z,169.80
2023-06-17T09:45:50.498Z,169.90
2023-06-17T09:46:50.458Z,170.35
2023-06-17T09:47:50.472Z,171.89
2023-06-17T09:48:50.382Z,174.60
2023-06-17T09:49:50.329Z,178.66
2023-06-17T09:50:50.295Z,170.17
2023-06-17T09:51:50.277Z,171.67
2023-06-17T09:52:50.241Z,170.26
2023-06-17T09:53:50.216Z,172.11
2023-06-17T09:54:50.173Z,175.43
2023-06-17T09:55:50.144Z,170.41
2023-06-17T09:56:50.109Z,172.69
2023-06-17T09:57:50.083Z,176.79
2023-06-17T09:58:50.058Z,183.40
2023-06-17T09:59:50.023Z,191.30
2023-06-17T10:00:49.984Z,194.34
2023-06-17T10:01:49.951Z,195.48
2023-06-17T10:02:50.025Z,195.15
2023-06-17T10:03:49.996Z,196.55
2023-06-17T10:04:49.847Z,197.72
2023-06-17T10:05:49.809Z,199.05
2023-06-17T10:06:49.770Z,199.14
2023-06-17T10:07:49.730Z,200.94
2023-06-17T10:08:49.705Z,202.13
2023-06-17T10:09:49.711Z,202.55
2023-06-17T10:10:49.685Z,204.26
2023-06-17T10:11:49.688Z,204.11
2023-06-17T10:12:49.634Z,204.94
2023-06-17T10:13:49.605Z,207.21
2023-06-17T10:14:49.578Z,207.56
2023-06-17T10:15:49.619Z,209.28
2023-06-17T10:16:49.592Z,210.24
2023-06-17T10:17:49.695Z,211.04
2023-06-17T10:18:49.557Z,211.09
2023-06-17T10:19:49.509Z,211.52
2023-06-17T10:20:49.490Z,212.47
2023-06-17T10:21:49.430Z,214.20
2023-06-17T10:22:49.401Z,216.26
2023-06-17T10:23:49.405Z,217.94
2023-06-17T10:24:49.352Z,218.54
2023-06-17T10:25:49.275Z,219.90
2023-06-17T10:26:51.129Z,219.96
2023-06-17T10:27:49.214Z,220.52
2023-06-17T10:28:49.193Z,222.28
2023-06-17T10:29:49.143Z,222.72
2023-06-17T10:30:49.119Z,223.47
2023-06-17T10:31:49.108Z,224.34
2023-06-17T10:32:50.981Z,224.43
2023-06-17T10:33:49.034Z,226.06
2023-06-17T10:34:48.968Z,226.71
2023-06-17T10:35:48.928Z,226.06
2023-06-17T10:36:48.915Z,227.69
2023-06-17T10:37:48.865Z,228.05
2023-06-17T10:38:50.525Z,229.03
2023-06-17T10:39:48.796Z,230.62
2023-06-17T10:40:48.811Z,230.17
2023-06-17T10:41:48.725Z,230.11
2023-06-17T10:42:48.708Z,231.94
2023-06-17T10:43:48.663Z,231.94
2023-06-17T10:44:50.141Z,232.85
2023-06-17T10:45:48.645Z,233.36
2023-06-17T10:46:48.539Z,233.33
2023-06-17T10:47:48.544Z,233.86
2023-06-17T10:48:48.529Z,234.12
2023-06-17T10:49:48.539Z,234.75
2023-06-17T10:50:50.965Z,235.03
2023-06-17T10:52:48.453Z,235.46
2023-06-17T10:53:48.428Z,235.72
2023-06-17T10:54:48.373Z,236.28
2023-06-17T10:55:48.334Z,237.31
2023-06-17T10:56:48.299Z,238.12
2023-06-17T10:57:48.254Z,239.13
2023-06-17T10:58:48.213Z,239.53
2023-06-17T10:59:48.171Z,240.05
2023-06-17T11:00:48.127Z,240.08
2023-06-17T11:01:49.582Z,240.25
2023-06-17T11:02:48.112Z,240.13
2023-06-17T11:03:48.012Z,240.27
2023-06-17T11:04:47.961Z,240.59
2023-06-17T11:05:47.922Z,241.32
2023-06-17T11:06:47.900Z,242.72
2023-06-17T11:07:47.858Z,242.51
2023-06-17T11:08:47.801Z,242.53
2023-06-17T11:09:47.837Z,242.45
2023-06-17T11:10:47.796Z,243.09
2023-06-17T11:11:47.652Z,243.70
2023-06-17T11:12:48.922Z,243.63
2023-06-17T11:13:47.568Z,244.28
2023-06-17T11:14:47.525Z,244.79
2023-06-17T11:15:47.477Z,245.49
2023-06-17T11:16:47.511Z,245.41
2023-06-17T11:17:47.424Z,245.03
2023-06-17T11:18:49.392Z,245.91
2023-06-17T11:19:47.311Z,245.95
2023-06-17T11:20:47.265Z,245.98
2023-06-17T11:21:47.234Z,246.00
2023-06-17T11:22:47.185Z,246.23
2023-06-17T11:23:47.142Z,246.74
2023-06-17T11:24:47.098Z,247.08
2023-06-17T11:25:47.057Z,247.28
2023-06-17T11:26:47.022Z,247.42
2023-06-17T11:27:46.976Z,247.85
2023-06-17T11:28:46.933Z,248.10
2023-06-17T11:29:46.880Z,248.20
2023-06-17T11:30:46.862Z,248.38
2023-06-17T11:31:46.821Z,248.75
2023-06-17T11:32:46.801Z,248.53
2023-06-17T11:33:46.739Z,248.35
2023-06-17T11:34:46.692Z,249.11
2023-06-17T11:35:46.621Z,248.59
2023-06-17T11:36:46.581Z,249.44
2023-06-17T11:37:46.537Z,249.23
2023-06-17T11:38:46.521Z,249.47
2023-06-17T11:39:46.460Z,249.49
2023-06-17T11:40:46.407Z,249.58
2023-06-17T11:41:46.366Z,249.92
2023-06-17T11:42:46.318Z,250.29
2023-06-17T11:43:46.285Z,250.25
2023-06-17T11:44:46.232Z,249.44
2023-06-17T11:45:46.198Z,248.83
2023-06-17T11:46:46.224Z,249.28
2023-06-17T11:47:46.169Z,248.96
2023-06-17T11:48:46.176Z,248.78
2023-06-17T11:49:46.177Z,249.44
2023-06-17T11:50:46.193Z,249.53
2023-06-17T11:51:46.204Z,249.56
2023-06-17T11:52:46.248Z,248.82
2023-06-17T11:53:46.265Z,249.35
2023-06-17T11:54:46.257Z,248.47
2023-06-17T11:55:46.288Z,249.26
2023-06-17T11:56:46.301Z,249.93
2023-06-17T11:57:46.330Z,248.85
2023-06-17T11:58:46.363Z,249.82
2023-06-17T11:59:46.352Z,249.75
2023-06-17T12:00:46.376Z,249.72
2023-06-17T12:01:46.420Z,249.13
2023-06-17T12:02:46.538Z,249.60
2023-06-17T12:03:46.448Z,248.94
2023-06-17T12:04:46.471Z,249.63
2023-06-17T12:05:46.483Z,249.18
2023-06-17T12:06:46.468Z,249.62
2023-06-17T12:07:46.500Z,249.38
2023-06-17T12:08:46.521Z,249.65
2023-06-17T12:09:46.528Z,249.72
2023-06-17T12:10:46.569Z,249.05
2023-06-17T12:11:46.568Z,249.22
2023-06-17T12:12:46.604Z,249.66
2023-06-17T12:13:46.616Z,249.28
2023-06-17T12:14:46.620Z,248.94
2023-06-17T12:15:46.647Z,249.22
2023-06-17T12:16:46.668Z,249.73
2023-06-17T12:17:46.833Z,249.12
2023-06-17T12:18:46.678Z,249.21
2023-06-17T12:19:46.689Z,249.24
2023-06-17T12:20:46.695Z,249.93
2023-06-17T12:21:46.696Z,248.89
2023-06-17T12:22:46.730Z,249.06
2023-06-17T12:23:46.900Z,248.84
2023-06-17T12:24:46.716Z,249.61
2023-06-17T12:25:46.717Z,249.33
2023-06-17T12:26:46.730Z,249.16
2023-06-17T12:27:46.740Z,249.53
2023-06-17T12:28:46.754Z,249.09
2023-06-17T12:29:47.024Z,249.42
2023-06-17T12:30:46.705Z,249.45
2023-06-17T12:31:46.654Z,249.54
2023-06-17T12:32:46.681Z,249.62
2023-06-17T12:33:46.567Z,249.63
2023-06-17T12:34:46.513Z,250.33
2023-06-17T12:35:46.461Z,249.53
2023-06-17T12:36:46.426Z,248.93
2023-06-17T12:37:46.373Z,249.09
2023-06-17T12:38:46.352Z,249.74